ZA-0131 weather

Nababiep Airport
Nababeep, Northern Cape, South Africa

Public forecast

Using degrees Celsius for public forecast. Weather courtesy of forecast.io.

METAR (pilot weather report)

Report is more than 6 hours old.

Closest report is Springbok Airport, 12.9 nm (23.9 km) SE. Retrieved 2019/08/19 08:25 UTC (7 hours ago):

FASB 190825Z 13006KT CAVOK 15/M03 Q1028

TAF (pilot weather forecast)

Forecast is more than 12 hours old.

Closest forecast is Alexander Bay Airport, 86.8 nm (160.8 km) NW. Retrieved 2017/07/06 00:54 UTC (2 years ago):

TAF FAAB 062130Z 0700/0806 27012KT 9999 BKN030 SCT080 BECMG 0702/0705 14010KT 8000 -RA/BR BKN030 BKN 080 BECMG0710/0713 9000 -RA BKN025 BKN070